Time;durP1;ratioP1;P1;durP2;ratioP2;P2;SDS_P1;SDS_P2;PMS_P1;PMS_P2;Temp;Humidity;BMP_temperature;BMP_pressure;BME280_temperature;BME280_humidity;BME280_pressure;Samples;Min_cycle;Max_cycle;Signal;HPM_P1;HPM_P2
2023/09/02 00:00:48;;;;;;;5.05;2.17;;;;;;;;;;5006931;28;20053;-77
2023/09/02 00:03:14;;;;;;;2.08;1.73;;;;;;;;;;5006430;28;20110;-77
2023/09/02 00:05:40;;;;;;;4.78;1.95;;;;;;;;;;5019457;28;20044;-78
2023/09/02 00:08:06;;;;;;;3.88;2.08;;;;;;;;;;5003803;28;20064;-78
2023/09/02 00:10:33;;;;;;;3.53;1.92;;;;;;;;;;5019052;28;20680;-78
2023/09/02 00:12:59;;;;;;;5.45;2.42;;;;;;;;;;5018502;28;21085;-78
2023/09/02 00:15:25;;;;;;;6.28;1.67;;;;;;;;;;5004842;28;20041;-78
2023/09/02 00:17:51;;;;;;;4.93;1.77;;;;;;;;;;4991337;28;20040;-77
2023/09/02 00:20:18;;;;;;;5.10;2.35;;;;;;;;;;5015430;28;20068;-77
2023/09/02 00:22:45;;;;;;;3.58;2.40;;;;;;;;;;5013144;28;20066;-77
2023/09/02 00:25:11;;;;;;;4.15;2.40;;;;;;;;;;5034482;28;20049;-78
2023/09/02 00:27:37;;;;;;;3.45;2.40;;;;;;;;;;5034995;28;20128;-78
2023/09/02 00:30:03;;;;;;;5.35;3.03;;;;;;;;;;4998733;28;20091;-78
2023/09/02 00:32:29;;;;;;;4.25;2.85;;;;;;;;;;5022797;28;20087;-78
2023/09/02 00:34:55;;;;;;;2.95;2.63;;;;;;;;;;5017562;28;20060;-78
2023/09/02 00:37:21;;;;;;;4.68;2.72;;;;;;;;;;5017002;28;22027;-78
2023/09/02 00:39:47;;;;;;;3.05;2.70;;;;;;;;;;5014697;28;20045;-78
2023/09/02 00:42:14;;;;;;;5.25;2.72;;;;;;;;;;5019492;28;20040;-78
2023/09/02 00:44:41;;;;;;;3.28;2.92;;;;;;;;;;5003247;28;20075;-78
2023/09/02 00:47:07;;;;;;;4.90;2.90;;;;;;;;;;5006934;28;20059;-78
2023/09/02 00:49:33;;;;;;;3.65;2.75;;;;;;;;;;5018705;28;20067;-78
2023/09/02 00:51:59;;;;;;;5.32;3.25;;;;;;;;;;5001814;28;20060;-78
2023/09/02 00:54:25;;;;;;;3.55;3.10;;;;;;;;;;5000763;28;20492;-77
2023/09/02 00:56:51;;;;;;;4.45;3.38;;;;;;;;;;5018201;28;20879;-77
2023/09/02 00:59:17;;;;;;;3.03;2.70;;;;;;;;;;5017529;28;20041;-77
2023/09/02 01:01:45;;;;;;;5.13;3.03;;;;;;;;;;4998498;28;20060;-77
2023/09/02 01:04:12;;;;;;;4.82;3.38;;;;;;;;;;5017436;28;20045;-78
2023/09/02 01:06:39;;;;;;;3.67;3.38;;;;;;;;;;5018268;28;20051;-78
2023/09/02 01:09:05;;;;;;;4.35;3.08;;;;;;;;;;5017658;28;20167;-78
2023/09/02 01:11:33;;;;;;;3.95;3.65;;;;;;;;;;5000956;28;20532;-77
2023/09/02 01:14:01;;;;;;;5.55;4.20;;;;;;;;;;5019366;28;20049;-78
2023/09/02 01:16:27;;;;;;;4.43;3.92;;;;;;;;;;5018208;28;20166;-78
2023/09/02 01:18:53;;;;;;;5.43;3.97;;;;;;;;;;5018453;28;20051;-77
2023/09/02 01:21:25;;;;;;;6.13;3.95;;;;;;;;;;5017763;28;20567;-78
2023/09/02 01:24:13;;;;;;;5.93;3.30;;;13.80;99.90;;;;;;5024864;28;20032;-77
2023/09/02 01:26:57;;;;;;;3.88;3.33;;;;;;;;;;5002805;28;20080;-77
2023/09/02 01:29:25;;;;;;;5.13;3.53;;;;;;;;;;5016508;28;20056;-78
2023/09/02 01:31:53;;;;;;;4.25;3.65;;;;;;;;;;5018712;28;20741;-78
2023/09/02 01:34:19;;;;;;;8.77;3.65;;;;;;;;;;5016637;28;20374;-77
2023/09/02 01:36:46;;;;;;;16.60;3.67;;;;;;;;;;4999579;28;20056;-77
2023/09/02 01:39:13;;;;;;;6.78;4.80;;;;;;;;;;5014963;28;20118;-77
2023/09/02 01:41:40;;;;;;;5.63;4.72;;;;;;;;;;5000879;28;20041;-77
2023/09/02 01:44:07;;;;;;;6.88;4.40;;;;;;;;;;5001774;28;20041;-77
2023/09/02 01:46:33;;;;;;;6.57;4.45;;;;;;;;;;5014265;28;21290;-76
2023/09/02 01:49:00;;;;;;;6.22;4.38;;;;;;;;;;4998959;28;20060;-81
2023/09/02 01:51:26;;;;;;;7.43;4.88;;;;;;;;;;5017186;28;20490;-81
2023/09/02 01:53:52;;;;;;;4.82;4.32;;;;;;;;;;5002201;28;20133;-81
2023/09/02 01:56:19;;;;;;;8.60;5.38;;;;;;;;;;5017391;28;20044;-81
2023/09/02 01:58:46;;;;;;;7.53;5.20;;;;;;;;;;5001186;28;20094;-81
2023/09/02 02:01:12;;;;;;;5.32;4.38;;;;;;;;;;5018208;28;20067;-81
2023/09/02 02:03:39;;;;;;;7.32;5.22;;;;;;;;;;5007809;28;20069;-81
2023/09/02 02:06:07;;;;;;;6.47;4.70;;;;;;;;;;5017799;28;20142;-81
2023/09/02 02:08:38;;;;;;;5.28;4.78;;;;;;;;;;5017708;28;20036;-82
2023/09/02 02:11:04;;;;;;;5.70;5.05;;;;;;;;;;5034930;28;20059;-82
2023/09/02 02:13:30;;;;;;;6.75;5.30;;;;;;;;;;5019281;28;20056;-82
2023/09/02 02:15:57;;;;;;;7.72;5.03;;;;;;;;;;5009890;28;20037;-81
2023/09/02 02:18:23;;;;;;;7.90;5.35;;;;;;;;;;5027783;28;20048;-82
2023/09/02 02:21:02;;;;;;;7.00;5.05;;;;;;;;;;5025833;28;20135;-81
2023/09/02 02:23:29;;;;;;;5.50;5.00;;;;;;;;;;5035772;28;20045;-81
2023/09/02 02:26:05;;;;;;;6.53;4.85;;;;;;;;;;5033077;28;20044;-81
2023/09/02 02:28:31;;;;;;;9.18;5.43;;;;;;;;;;5013392;28;20161;-81
2023/09/02 02:30:58;;;;;;;7.53;5.40;;;;;;;;;;5014476;28;20204;-81
2023/09/02 02:33:24;;;;;;;5.90;5.35;;;;;;;;;;5020160;28;20090;-81
2023/09/02 02:35:50;;;;;;;6.72;5.40;;;;;;;;;;5016093;28;20087;-81
2023/09/02 02:38:17;;;;;;;7.57;5.53;;;;;;;;;;5013263;28;20059;-81
2023/09/02 02:40:43;;;;;;;10.02;5.85;;;;;;;;;;5017571;28;20136;-81
2023/09/02 02:43:09;;;;;;;7.28;5.80;;;;;;;;;;5018382;28;20389;-81
2023/09/02 02:45:35;;;;;;;6.47;5.80;;;;;;;;;;5016700;28;20068;-81
2023/09/02 02:48:01;;;;;;;6.47;5.82;;;;;;;;;;5034934;28;20048;-81
2023/09/02 02:50:27;;;;;;;7.68;5.70;;;;;;;;;;5017370;28;20056;-81
2023/09/02 02:52:53;;;;;;;7.13;6.15;;;;;;;;;;5004768;28;20045;-81
2023/09/02 02:55:20;;;;;;;10.55;6.25;;;;;;;;;;5018954;28;20464;-81
2023/09/02 02:57:46;;;;;;;13.20;7.85;;;;;;;;;;5017611;28;20740;-81
2023/09/02 03:00:12;;;;;;;25.17;11.40;;;;;;;;;;5009358;28;20118;-81
2023/09/02 03:02:38;;;;;;;10.68;7.15;;;;;;;;;;5022313;28;20417;-81
2023/09/02 03:05:04;;;;;;;7.63;5.53;;;;;;;;;;5019032;28;20060;-81
2023/09/02 03:07:30;;;;;;;6.32;5.10;;;;;;;;;;5022896;28;20040;-81
2023/09/02 03:09:56;;;;;;;5.45;4.63;;;;;;;;;;5018842;28;20075;-81
2023/09/02 03:12:22;;;;;;;5.88;5.28;;;;;;;;;;5019958;28;20049;-81
2023/09/02 03:14:49;;;;;;;10.82;5.30;;;;;;;;;;5019367;28;20140;-81
2023/09/02 03:17:20;;;;;;;8.10;4.70;;;;;;;;;;5005547;28;20080;-81
2023/09/02 03:19:47;;;;;;;8.30;4.97;;;;;;;;;;5024211;28;20049;-81
2023/09/02 03:22:14;;;;;;;6.72;4.97;;;;;;;;;;5025183;28;20448;-82
2023/09/02 03:24:41;;;;;;;5.97;4.68;;;;;;;;;;5040066;28;20049;-81
2023/09/02 03:27:07;;;;;;;8.27;4.88;;;;;;;;;;5021519;28;20442;-81
2023/09/02 03:29:34;;;;;;;7.47;4.95;;;;;;;;;;5021966;28;20065;-82
2023/09/02 03:32:00;;;;;;;6.32;5.28;;;;;;;;;;5021629;28;20060;-81
2023/09/02 03:34:26;;;;;;;8.13;5.38;;;;;;;;;;5008731;28;20568;-81
2023/09/02 03:36:52;;;;;;;9.95;5.80;;;;;;;;;;5038040;28;20388;-81
2023/09/02 03:39:18;;;;;;;9.88;6.35;;;;;;;;;;5022793;28;20084;-81
2023/09/02 03:41:47;;;;;;;7.28;5.15;;;;;;;;;;5009531;28;20037;-81
2023/09/02 03:44:14;;;;;;;7.65;5.97;;;;;;;;;;5011854;28;20229;-81
2023/09/02 03:46:40;;;;;;;8.75;6.00;;;;;;;;;;5023627;28;20435;-81
2023/09/02 03:49:06;;;;;;;7.90;6.50;;;;;;;;;;5009561;28;20177;-81
2023/09/02 03:51:32;;;;;;;8.23;6.47;;;;;;;;;;5025058;28;20048;-81
2023/09/02 03:53:58;;;;;;;7.13;6.40;;;;;;;;;;5009172;28;20044;-81
2023/09/02 03:56:24;;;;;;;6.35;5.75;;;;;;;;;;5042453;28;20123;-81
2023/09/02 03:58:50;;;;;;;9.23;6.50;;;;;;;;;;5026819;28;20473;-81
2023/09/02 04:01:17;;;;;;;8.38;6.63;;;;;;;;;;5023635;28;20063;-82
2023/09/02 04:03:43;;;;;;;9.23;6.75;;;;;;;;;;5042409;28;20171;-81
2023/09/02 04:06:09;;;;;;;13.98;6.68;;;;;;;;;;5025865;28;20049;-81
2023/09/02 04:08:36;;;;;;;8.07;6.28;;;;;;;;;;5041248;28;20063;-81
2023/09/02 04:11:05;;;;;;;9.50;6.22;;;;;;;;;;5006511;28;20047;-80
2023/09/02 04:13:31;;;;;;;8.02;6.30;;;;;;;;;;5020220;28;20591;-81
2023/09/02 04:15:58;;;;;;;9.90;6.57;;;;;;;;;;5018519;28;20056;-81
2023/09/02 04:18:24;;;;;;;9.38;6.95;;;;;;;;;;5020465;28;20048;-81
2023/09/02 04:20:50;;;;;;;8.52;6.45;;;;;;;;;;5018406;28;20448;-82
2023/09/02 04:23:17;;;;;;;8.10;6.50;;;;;;;;;;5022200;28;20045;-81
2023/09/02 04:25:44;;;;;;;11.27;8.02;;;;;;;;;;5004101;28;20036;-81
2023/09/02 04:28:10;;;;;;;10.60;6.88;;;;;;;;;;5015901;28;20088;-81
2023/09/02 04:30:38;;;;;;;8.35;5.70;;;;;;;;;;5008833;28;20497;-81
2023/09/02 04:33:04;;;;;;;8.80;6.80;;;;;;;;;;5033431;28;20072;-81
2023/09/02 04:35:34;;;;;;;8.02;6.47;;;;;;;;;;5013594;28;20041;-81
2023/09/02 04:38:01;;;;;;;13.13;6.68;;;;;;;;;;5011258;28;20040;-78
2023/09/02 04:40:27;;;;;;;6.95;6.13;;;;;;;;;;5014931;28;20045;-77
2023/09/02 04:42:55;;;;;;;9.80;6.97;;;;;;;;;;5017414;28;20055;-78
2023/09/02 04:45:21;;;;;;;11.55;7.93;;;;;;;;;;5016980;28;20074;-78
2023/09/02 04:47:47;;;;;;;7.95;6.60;;;;;;;;;;5014087;28;20520;-78
2023/09/02 04:50:13;;;;;;;10.38;6.75;;;;;;;;;;5014525;28;20191;-78
2023/09/02 04:52:39;;;;;;;9.77;6.60;;;;;;;;;;4997182;28;20044;-78
2023/09/02 04:55:06;;;;;;;10.57;8.07;;;;;;;;;;4996867;28;20136;-78
2023/09/02 04:57:33;;;;;;;9.82;6.90;;;;;;;;;;5016883;28;20068;-77
2023/09/02 04:59:59;;;;;;;9.10;7.65;;;;;;;;;;5012667;28;20128;-77
2023/09/02 05:02:25;;;;;;;8.52;7.43;;;;;;;;;;5019297;28;20482;-77
2023/09/02 05:04:52;;;;;;;9.55;8.35;;;;;;;;;;5012976;28;20131;-77
2023/09/02 05:07:18;;;;;;;9.20;7.68;;;;;;;;;;5015703;28;20456;-77
2023/09/02 05:09:44;;;;;;;11.93;6.80;;;;;;;;;;4999256;28;20048;-77
2023/09/02 05:12:10;;;;;;;10.27;8.02;;;;;;;;;;5030367;28;20036;-77
2023/09/02 05:14:38;;;;;;;10.35;8.13;;;;;;;;;;5014541;28;21176;-78
2023/09/02 05:17:04;;;;;;;9.65;7.97;;;;;;;;;;5014501;28;20091;-77
2023/09/02 05:19:30;;;;;;;15.02;8.25;;;;;;;;;;4998554;28;20041;-77
2023/09/02 05:21:57;;;;;;;12.93;7.75;;;;;;;;;;4995202;28;20070;-77
2023/09/02 05:24:23;;;;;;;11.65;8.77;;;;;;;;;;4996438;28;20045;-77
2023/09/02 05:26:49;;;;;;;13.55;8.77;;;;;;;;;;5013380;28;20076;-77
2023/09/02 05:29:15;;;;;;;14.38;9.02;;;;;;;;;;5014593;28;20040;-77
2023/09/02 05:31:41;;;;;;;15.93;8.80;;;;;;;;;;5036093;28;20047;-76
2023/09/02 05:34:08;;;;;;;11.40;8.02;;;;;;;;;;5014677;28;20094;-77
2023/09/02 05:36:34;;;;;;;12.35;8.68;;;;;;;;;;5015852;28;20076;-77
2023/09/02 05:39:00;;;;;;;9.35;8.07;;;;;;;;;;5001541;28;20048;-77
2023/09/02 05:41:28;;;;;;;10.45;7.95;;;;;;;;;;5016347;28;20048;-76
2023/09/02 05:43:54;;;;;;;9.00;7.68;;;;;;;;;;5018440;28;20072;-77
2023/09/02 05:46:20;;;;;;;11.65;8.52;;;;;;;;;;4999087;28;20962;-77
2023/09/02 05:48:46;;;;;;;9.43;8.20;;;;;;;;;;5000736;28;20052;-77
2023/09/02 05:51:12;;;;;;;11.65;8.30;;;;;;;;;;5016937;28;20068;-81
2023/09/02 05:53:38;;;;;;;11.35;8.18;;;;;;;;;;5017229;28;20045;-81
2023/09/02 05:56:04;;;;;;;12.05;8.02;;;;;;;;;;5018312;28;20072;-80
2023/09/02 05:58:30;;;;;;;10.60;8.30;;;;;;;;;;5018221;28;20105;-80
2023/09/02 06:00:59;;;;;;;12.55;8.40;;;;;;;;;;5002965;28;20041;-81
2023/09/02 06:03:25;;;;;;;12.38;9.00;;;;;;;;;;5024948;28;20131;-82
2023/09/02 06:05:51;;;;;;;11.10;7.70;;;;;;;;;;5001960;28;20044;-82
2023/09/02 06:08:18;;;;;;;8.27;6.78;;;;;;;;;;5018882;28;20045;-82
2023/09/02 06:10:44;;;;;;;9.60;7.45;;;;;;;;;;5016623;28;20119;-81
2023/09/02 06:13:10;;;;;;;12.23;8.55;;;;;;;;;;5003520;28;20045;-82
2023/09/02 06:15:36;;;;;;;12.45;8.05;;;;;;;;;;5006174;28;20060;-82
2023/09/02 06:18:02;;;;;;;10.05;7.68;;;;;;;;;;4985818;28;20053;-82
2023/09/02 06:20:28;;;;;;;11.98;8.68;;;;;;;;;;5015984;28;20042;-81
2023/09/02 06:22:54;;;;;;;13.45;8.20;;;;;;;;;;5015413;28;20045;-81
2023/09/02 06:25:20;;;;;;;12.18;7.72;;;;;;;;;;5014369;28;20046;-82
2023/09/02 06:27:47;;;;;;;12.82;9.05;;;;;;;;;;5016460;28;20133;-82
2023/09/02 06:30:13;;;;;;;11.35;8.70;;;;;;;;;;5014080;28;22327;-80
2023/09/02 06:32:39;;;;;;;11.27;8.43;;;;;;;;;;5014481;28;22122;-81
2023/09/02 06:35:05;;;;;;;14.25;10.13;;;;;;;;;;5004392;28;20053;-80
2023/09/02 06:37:31;;;;;;;13.52;10.23;;;;;;;;;;5007809;28;20539;-81
2023/09/02 06:39:57;;;;;;;13.15;7.60;;;;;;;;;;5019227;28;20160;-80
2023/09/02 06:42:23;;;;;;;8.80;6.72;;;;;;;;;;5017171;28;20115;-80
2023/09/02 06:44:53;;;;;;;10.00;7.40;;;;;;;;;;5018193;28;20041;-81
2023/09/02 06:47:19;;;;;;;10.85;7.40;;;;;;;;;;5020097;28;20043;-74
2023/09/02 06:49:46;;;;;;;11.35;7.22;;;;;;;;;;5015046;28;20044;-74
2023/09/02 06:52:12;;;;;;;15.18;7.90;;;;;;;;;;5019632;28;20033;-81
2023/09/02 06:54:38;;;;;;;13.13;8.45;;;;;;;;;;5008239;28;20206;-80
2023/09/02 06:57:04;;;;;;;20.50;9.00;;;;;;;;;;5013474;28;20050;-81
2023/09/02 06:59:30;;;;;;;12.73;9.57;;;;;;;;;;5015355;28;20037;-80
2023/09/02 07:01:56;;;;;;;12.27;8.20;;;;;;;;;;5014305;28;20051;-80
2023/09/02 07:04:22;;;;;;;13.20;7.72;;;;;;;;;;5015852;28;20452;-80
2023/09/02 07:06:48;;;;;;;10.55;8.70;;;;;;;;;;5014945;28;20168;-80
2023/09/02 07:09:14;;;;;;;11.00;8.45;;;;;;;;;;5014456;28;20084;-74
2023/09/02 07:11:40;;;;;;;11.48;6.38;;;;;;;;;;5017908;28;20183;-74
2023/09/02 07:14:06;;;;;;;10.57;7.57;;;;;;;;;;5015800;28;20048;-74
2023/09/02 07:16:33;;;;;;;10.25;7.05;;;;;;;;;;5015622;28;21682;-74
2023/09/02 07:19:02;;;;;;;11.98;7.70;;;;;;;;;;5018748;28;20133;-74
2023/09/02 07:21:29;;;;;;;13.80;7.45;;;;;;;;;;5017325;28;20155;-74
2023/09/02 07:23:55;;;;;;;8.82;6.07;;;;;;;;;;5016054;28;20098;-74
2023/09/02 07:26:21;;;;;;;7.30;5.40;;;;;;;;;;5014069;28;20051;-80
2023/09/02 07:28:47;;;;;;;7.35;4.72;;;;;;;;;;5018230;28;20045;-80
2023/09/02 07:31:13;;;;;;;6.75;4.85;;;;;;;;;;5019301;28;20110;-81
2023/09/02 07:33:40;;;;;;;6.97;4.60;;;;;;;;;;5032258;28;20068;-74
2023/09/02 07:36:10;;;;;;;5.88;4.05;;;;;;;;;;5032839;28;20052;-73
2023/09/02 07:38:37;;;;;;;7.00;4.68;;;;;;;;;;5019083;28;20033;-80
2023/09/02 07:41:03;;;;;;;5.90;4.22;;;;;;;;;;5036635;28;20049;-74
2023/09/02 07:43:29;;;;;;;5.25;3.00;;;;;;;;;;5019921;28;20480;-73
2023/09/02 07:45:56;;;;;;;5.75;3.03;;;;;;;;;;5020105;28;20089;-74
2023/09/02 07:48:22;;;;;;;13.43;4.10;;;;;;;;;;5020446;28;20041;-74
2023/09/02 07:50:48;;;;;;;6.47;3.15;;;;;;;;;;5020678;28;20194;-73
2023/09/02 07:53:14;;;;;;;5.47;3.20;;;;;;;;;;5040667;28;20041;-74
2023/09/02 07:55:40;;;;;;;6.93;3.47;;;;;;;;;;5020368;28;20044;-74
2023/09/02 07:58:07;;;;;;;5.45;3.70;;;;;;;;;;5017126;28;20103;-74
2023/09/02 08:00:34;;;;;;;4.97;2.50;;;;;;;;;;5017603;28;20417;-74
2023/09/02 08:03:00;;;;;;;6.47;2.97;;;;;;;;;;4999816;28;20048;-74
2023/09/02 08:05:26;;;;;;;8.02;2.47;;;;;;;;;;5036474;28;20045;-79
2023/09/02 08:07:52;;;;;;;3.53;2.20;;;;;;;;;;5019655;28;20071;-80
2023/09/02 08:10:18;;;;;;;5.80;2.20;;;;;;;;;;5038264;28;20055;-79
2023/09/02 08:12:45;;;;;;;5.65;2.08;;;;;;;;;;5015089;28;20045;-75
2023/09/02 08:15:12;;;;;;;7.68;2.17;;;;;;;;;;5004930;28;20048;-75
2023/09/02 08:17:39;;;;;;;4.32;2.47;;;;;;;;;;5014449;28;20072;-76
2023/09/02 08:20:05;;;;;;;6.78;2.50;;;;;;;;;;5036256;28;20135;-74
2023/09/02 08:22:32;;;;;;;3.15;2.20;;;;;;;;;;5035251;28;20579;-75
2023/09/02 08:24:58;;;;;;;3.70;2.67;;;;;;;;;;5017410;28;20040;-74
2023/09/02 08:27:25;;;;;;;7.68;2.33;;;;;;;;;;5017156;28;20055;-75
2023/09/02 08:29:51;;;;;;;4.88;2.90;;;;;;;;;;4998364;28;20044;-74
2023/09/02 08:32:17;;;;;;;5.40;2.33;;;;;;;;;;5033479;28;20049;-76
2023/09/02 08:34:43;;;;;;;8.88;2.85;;;;;;;;;;5021316;28;20142;-75
2023/09/02 08:37:09;;;;;;;4.65;2.50;;;;;;;;;;5037667;28;21873;-75
2023/09/02 08:39:35;;;;;;;10.00;2.80;;;;;;;;;;5041782;28;20049;-75
2023/09/02 08:42:02;;;;;;;4.68;2.47;;;;;;;;;;5021886;28;20064;-74
2023/09/02 08:44:28;;;;;;;7.35;3.22;;;;;;;;;;5015617;28;20083;-75
2023/09/02 08:46:56;;;;;;;4.00;3.00;;;;;;;;;;4987790;28;20773;-75
2023/09/02 08:49:23;;;;;;;9.93;3.40;;;;;;;;;;5031921;28;20487;-75
2023/09/02 08:51:49;;;;;;;5.22;3.40;;;;;;;;;;5017166;28;20074;-75
2023/09/02 08:54:15;;;;;;;6.70;3.25;;;;;;;;;;5018809;28;20068;-76
2023/09/02 08:56:42;;;;;;;5.25;3.10;;;;;;;;;;5034879;28;20705;-76
2023/09/02 08:59:09;;;;;;;7.65;3.95;;;;;;;;;;5019183;28;20155;-76
2023/09/02 09:01:41;;;;;;;6.15;4.18;;;;;;;;;;5035596;28;20676;-77
2023/09/02 09:04:07;;;;;;;6.75;3.83;;;;;;;;;;5019165;28;20080;-76
2023/09/02 09:06:36;;;;;;;7.13;3.78;;;;;;;;;;5033369;28;20091;-76
2023/09/02 09:09:02;;;;;;;10.93;4.00;;;;;;;;;;5033998;28;20111;-76
2023/09/02 09:11:31;;;;;;;8.93;3.47;;;;;;;;;;5032821;28;20040;-75
2023/09/02 09:13:59;;;;;;;8.80;3.95;;;;;;;;;;5034897;28;20131;-81
2023/09/02 09:16:31;;;;;;;4.28;3.03;;;;;;;;;;5040837;28;20075;-77
2023/09/02 09:18:57;;;;;;;6.32;4.05;;;;;;;;;;5020224;28;20656;-80
2023/09/02 09:21:24;;;;;;;8.65;3.72;;;;;;;;;;5034856;28;20056;-75
2023/09/02 09:23:50;;;;;;;7.10;4.07;;;;;;;;;;5018845;28;20045;-75
2023/09/02 09:26:16;;;;;;;8.10;3.78;;;;;;;;;;5033871;28;20047;-75
2023/09/02 09:29:12;;;;;;;6.78;3.97;;;;;;;;;;5015958;28;20041;-74
2023/09/02 09:31:38;;;;;;;7.88;3.65;;;;;;;;;;5004163;28;20178;-74
2023/09/02 09:34:06;;;;;;;7.75;4.60;;;;;;;;;;5009990;28;22106;-74
2023/09/02 09:36:33;;;;;;;11.48;4.10;;;;;;;;;;5006094;28;20389;-81
2023/09/02 09:39:03;;;;;;;7.35;3.95;;;;;;;;;;5037275;28;20045;-75
2023/09/02 09:41:29;;;;;;;5.20;3.65;;;;;;;;;;5016152;28;20128;-75
2023/09/02 09:44:12;;;;;;;9.95;3.78;;;;;;;;;;5017618;28;20892;-75
2023/09/02 09:46:44;;;;;;;6.85;3.95;;;;;;;;;;5036954;28;20049;-74
2023/09/02 09:49:22;;;;;;;7.88;3.67;;;;;;;;;;5029241;28;20064;-75
2023/09/02 09:51:51;;;;;;;7.63;4.03;;;;;;;;;;5015829;28;20044;-75
2023/09/02 09:54:17;;;;;;;10.77;3.38;;;;;;;;;;5019163;28;20044;-82
2023/09/02 09:56:43;;;;;;;7.60;3.40;;;;;;;;;;5017585;28;20120;-75
2023/09/02 09:59:09;;;;;;;7.63;3.75;;;;;;;;;;5022491;28;20051;-81
2023/09/02 10:01:37;;;;;;;11.18;3.90;;;;;;;;;;5020114;28;20044;-81
2023/09/02 10:04:09;;;;;;;4.93;3.78;;;;;;;;;;5038571;28;20053;-81
2023/09/02 10:06:39;;;;;;;10.43;4.03;;;;;;;;;;5020601;28;20083;-81
2023/09/02 10:09:05;;;;;;;13.50;4.15;;;;;;;;;;5008618;28;20055;-81
2023/09/02 10:11:31;;;;;;;8.13;4.22;;;;;;;;;;5022806;28;20410;-82
2023/09/02 10:13:58;;;;;;;5.25;2.60;;;;;;;;;;5017263;28;20105;-82
2023/09/02 10:16:25;;;;;;;11.38;3.72;;;;;;;;;;5035123;28;20098;-81
2023/09/02 10:18:51;;;;;;;6.38;2.70;;;;;;;;;;5016397;28;20068;-73
2023/09/02 10:21:21;;;;;;;3.97;2.90;;;;;;;;;;5033888;28;20044;-81
2023/09/02 10:23:49;;;;;;;5.60;2.30;;;;;;;;;;5021565;28;20045;-82
2023/09/02 10:26:24;;;;;;;5.97;2.22;;;;;;;;;;5004137;28;20049;-76
2023/09/02 10:28:51;;;;;;;6.88;2.20;;;;;;;;;;5015419;28;20044;-80
2023/09/02 10:31:20;;;;;;;6.82;2.30;;;;;;;;;;5019829;28;20068;-75
2023/09/02 10:33:50;;;;;;;4.10;1.80;;;;;;;;;;5017827;28;20056;-76
2023/09/02 10:36:21;;;;;;;4.40;2.15;;;;;;;;;;5036578;28;20634;-76
2023/09/02 10:38:49;;;;;;;7.13;2.25;;;;;;;;;;5034256;28;20086;-75
2023/09/02 10:41:16;;;;;;;5.95;2.78;;;;;;;;;;5019043;28;20048;-81
2023/09/02 10:43:43;;;;;;;3.95;2.47;;;;;;;;;;5019952;28;20045;-74
2023/09/02 10:46:09;;;;;;;5.35;2.50;;;;;;;;;;5033407;28;20037;-74
2023/09/02 10:48:40;;;;;;;2.80;1.80;;;;;;;;;;5035555;28;20049;-75
2023/09/02 10:51:08;;;;;;;7.85;2.67;;;;;;;;;;5035041;28;20071;-75
2023/09/02 10:53:53;;;;;;;8.05;2.80;;;;;;;;;;5036412;28;20044;-81
2023/09/02 10:56:26;;;;;;;5.13;3.13;;;;;;;;;;5021518;28;20071;-82
2023/09/02 10:58:52;;;;;;;6.47;3.20;;;;;;;;;;5037198;28;20048;-81
2023/09/02 11:01:18;;;;;;;5.35;3.10;;;;;;;;;;5036764;28;20052;-75
2023/09/02 11:03:46;;;;;;;4.72;2.90;;;;;;;;;;5001363;28;20952;-76
2023/09/02 11:06:15;;;;;;;7.25;2.63;;;;;;;;;;5020410;28;21972;-76
2023/09/02 11:08:53;;;;;;;4.57;2.05;;;;;;;;;;5035483;28;20044;-76
2023/09/02 11:11:20;;;;;;;4.95;2.53;;;;;;;;;;5034846;28;20091;-76
2023/09/02 11:14:05;;;;;;;5.50;2.08;;;;;;;;;;5018066;28;20158;-76
2023/09/02 11:16:31;;;;;;;3.55;1.98;;;;;;;;;;5001533;28;20361;-80
2023/09/02 11:19:00;;;;;;;3.00;1.58;;;;;;;;;;5023039;28;20237;-82
2023/09/02 11:21:39;;;;;;;6.43;1.92;;;;;;;;;;5021446;28;20419;-76
2023/09/02 11:24:15;;;;;;;5.95;2.17;;;;;;;;;;5035919;28;20131;-81
2023/09/02 11:26:57;;;;;;;3.28;2.13;;;;;;;;;;5021257;28;20044;-81
2023/09/02 11:29:28;;;;;;;3.95;1.80;;;;;;;;;;5022300;28;20099;-80
2023/09/02 11:32:04;;;;;;;3.33;1.60;;;;;;;;;;5040265;28;20043;-76
2023/09/02 11:34:31;;;;;;;4.63;1.63;;;;;;;;;;5033901;28;20156;-76
2023/09/02 11:36:58;;;;;;;4.03;2.00;;;;;;;;;;5020317;28;20640;-81
2023/09/02 11:39:32;;;;;;;3.80;2.20;;;;;;;;;;4994649;28;20051;-81
2023/09/02 11:42:08;;;;;;;5.57;1.30;;;;;;;;;;5018377;28;20055;-75
2023/09/02 11:44:34;;;;;;;3.60;1.83;;;;;;;;;;5033761;28;20076;-75
2023/09/02 11:47:01;;;;;;;3.53;1.27;;;;;;;;;;5036298;28;20134;-76
2023/09/02 11:49:27;;;;;;;4.53;1.52;;;;;;;;;;5021777;28;20448;-71
2023/09/02 11:51:54;;;;;;;4.65;1.50;;;;;;;;;;5039918;28;20135;-71
2023/09/02 11:54:20;;;;;;;6.10;1.70;;;;;;;;;;5039713;28;20707;-73
2023/09/02 11:57:00;;;;;;;4.85;1.55;;;;;;;;;;5026984;28;20049;-92
2023/09/02 11:59:26;;;;;;;4.07;1.17;;;;;;;;;;5039981;28;20045;-91
2023/09/02 12:02:07;;;;;;;4.18;1.00;;;;;;;;;;5022649;28;20048;-91
2023/09/02 12:04:37;;;;;;;4.57;1.35;;;;;;;;;;5038363;28;20086;-91
2023/09/02 12:07:03;;;;;;;2.80;1.13;;;;;;;;;;5040774;28;20043;-83
2023/09/02 12:09:30;;;;;;;1.30;0.93;;;;;;;;;;5044963;28;20389;-91
2023/09/02 12:11:57;;;;;;;2.30;1.27;;;;;;;;;;5041257;28;20681;-89
2023/09/02 12:14:23;;;;;;;1.88;0.80;;;;;;;;;;5057205;28;20021;-90
2023/09/02 12:16:49;;;;;;;4.70;1.08;;;;;;;;;;5037468;28;20045;-90
2023/09/02 12:19:15;;;;;;;5.30;1.08;;;;;;;;;;5037053;28;20036;-89
2023/09/02 12:21:42;;;;;;;2.13;0.90;;;;;;;;;;5036972;28;20094;-91
2023/09/02 12:24:08;;;;;;;4.13;1.00;;;;;;;;;;5008780;28;20048;-91
2023/09/02 12:26:45;;;;;;;3.45;1.23;;;;;;;;;;5021124;28;20035;-91
2023/09/02 12:29:17;;;;;;;3.63;1.15;;;;;;;;;;5021077;28;20101;-87
2023/09/02 12:31:54;;;;;;;3.45;0.90;;;;;;;;;;5026130;28;20067;-83
2023/09/02 12:34:33;;;;;;;;;;;;;;;;;;;;;
2023/09/02 12:37:13;;;;;;;4.68;0.80;;;;;;;;;;5044445;28;20045;-91
2023/09/02 12:39:39;;;;;;;4.80;1.35;;;;;;;;;;5029417;28;20049;-82
2023/09/02 12:42:37;;;;;;;;;;;;;;;;;;;;;
2023/09/02 12:45:04;;;;;;;5.10;1.05;;;;;;;;;;5055430;28;20051;-91
2023/09/02 12:47:33;;;;;;;4.10;1.10;;;;;;;;;;5046993;28;20036;-92
2023/09/02 12:50:02;;;;;;;1.83;0.90;;;;;;;;;;5056705;28;20071;-92
2023/09/02 12:52:43;;;;;;;3.50;1.10;;;;;;;;;;5057703;28;20040;-92
2023/09/02 12:55:12;;;;;;;5.22;1.35;;;;;;;;;;5034647;28;20048;-90
2023/09/02 12:57:48;;;;;;;;;;;;;;;;;;;;;
2023/09/02 13:00:17;;;;;;;1.77;1.15;;;;;;;;;;5056319;28;20036;-90
2023/09/02 13:02:45;;;;;;;2.67;1.10;;;;;;;;;;5038358;28;20044;-89
2023/09/02 13:05:21;;;;;;;;;;;;;;;;;;;;;
2023/09/02 13:07:50;;;;;;;3.17;0.82;;;;;;;;;;5063607;28;20040;-92
2023/09/02 13:10:22;;;;;;;3.38;0.93;;;;;;;;;;5041673;28;20634;-92
2023/09/02 13:12:58;;;;;;;;;;;;;;;;;;;;;
2023/09/02 13:15:25;;;;;;;2.00;0.98;;;;;;;;;;5054946;28;20044;-90
2023/09/02 13:18:04;;;;;;;;;;;;;;;;;;;;;
2023/09/02 13:20:35;;;;;;;2.45;1.00;;;;;;;;;;5038584;28;20033;-92
2023/09/02 13:23:05;;;;;;;3.70;1.30;;;;;;;;;;5021644;28;20052;-91
2023/09/02 13:25:31;;;;;;;8.60;1.42;;;;;;;;;;5012238;28;20531;-82
2023/09/02 13:28:09;;;;;;;;;;;;;;;;;;;;;
2023/09/02 13:30:38;;;;;;;5.55;0.82;;;;;;;;;;5038180;28;20040;-89
2023/09/02 13:33:08;;;;;;;2.63;0.93;;;;;;;;;;5033675;28;20523;-91
2023/09/02 13:35:34;;;;;;;2.97;1.15;;;;;;;;;;5051086;28;20127;-91
2023/09/02 13:38:00;;;;;;;2.15;1.02;;;;;;;;;;5037608;28;20037;-91
2023/09/02 13:40:39;;;;;;;2.08;0.90;;;;;;;;;;5044374;28;20492;-93
2023/09/02 13:43:26;;;;;;;1.25;0.93;;;;;;;;;;5049039;28;20048;-92
2023/09/02 13:45:55;;;;;;;1.20;0.98;;;;;;;;;;5051913;28;20033;-93
2023/09/02 13:48:21;;;;;;;2.17;1.10;;;;;;;;;;5035303;28;20098;-91
2023/09/02 13:50:57;;;;;;;;;;;;;;;;;;;;;
2023/09/02 13:53:30;;;;;;;1.63;0.80;;;;;;;;;;5051207;28;20096;-92
2023/09/02 13:56:02;;;;;;;2.15;0.80;;;;;;;;;;5039927;28;20037;-94
2023/09/02 13:58:40;;;;;;;1.20;0.70;;;;;;;;;;5057852;28;20086;-91
2023/09/02 14:01:09;;;;;;;3.45;1.02;;;;;;;;;;5042664;28;20041;-94
2023/09/02 14:03:43;;;;;;;2.45;1.00;;;;;;;;;;5044062;28;20032;-93
2023/09/02 14:06:09;;;;;;;1.48;0.90;;;;;;;;;;5035098;28;20045;-91
2023/09/02 14:08:44;;;;;;;5.90;0.90;;;;;;;;;;5043625;28;20061;-92
2023/09/02 14:11:16;;;;;;;2.25;0.80;;;;;;;;;;5037714;28;20104;-82
2023/09/02 14:13:58;;;;;;;2.13;1.10;;;;;;;;;;5018902;28;20086;-82
2023/09/02 14:16:35;;;;;;;;;;;;;;;;;;;;;
2023/09/02 14:19:03;;;;;;;4.80;1.08;;;;;;;;;;5032309;28;20053;-82
2023/09/02 14:21:34;;;;;;;2.08;0.95;;;;;;;;;;5028088;28;20049;-81
2023/09/02 14:24:03;;;;;;;1.13;0.80;;;;;;;;;;5009714;28;20136;-94
2023/09/02 14:26:38;;;;;;;2.55;0.90;;;;;;;;;;5032386;28;20114;-95
2023/09/02 14:29:07;;;;;;;2.55;0.93;;;;;;;;;;5040296;28;20041;-93
2023/09/02 14:31:41;;;;;;;2.97;1.10;;;;;;;;;;5037002;28;20033;-93
2023/09/02 14:34:07;;;;;;;1.60;0.90;;;;;;;;;;5037761;28;20064;-94
2023/09/02 14:36:36;;;;;;;3.67;1.00;;;;;;;;;;5042033;28;20037;-93
2023/09/02 14:39:15;;;;;;;;;;;;;;;;;;;;;
2023/09/02 14:41:51;;;;;;;2.13;0.60;;;;;;;;;;5050225;28;20068;-81
2023/09/02 14:44:22;;;;;;;2.33;0.95;;;;;;;;;;5032287;28;20040;-93
2023/09/02 14:46:56;;;;;;;1.92;0.90;;;;;;;;;;5043062;28;20036;-93
2023/09/02 14:49:24;;;;;;;1.95;1.05;;;;;;;;;;5042760;28;20033;-93
2023/09/02 14:51:51;;;;;;;1.92;0.93;;;;;;;;;;5014156;28;20069;-80
2023/09/02 14:54:18;;;;;;;2.55;1.00;;;;;;;;;;5028543;28;20056;-81